aviador You're here:

PARY Decoded Metar

RUBY in AK, USA
Report Time2018-05-20 22:56:00
UTC Time2018-05-20 23:20:41
Flight Rules vfr VFR
Wind070° at 09 kt
W.Decomp.*RWY 03: 8.5 kt HW 3.1 kt RCW
W.Rank070° ranks 3
Current wind is above 070° avg. (7.5)
Visibility9999 m
Phenomena:N/A
Clouds:Broken 100 Hf
Expected CloudBase > 4,000 ft AGL from Temp-Dew spread
Ceiling10,000 ft
Temp13°C (ISA -1)
Dew Point03°C (51% RH)
AAT8.3°C
QNH1000 hPa
Density Alt1,119 ft
Elevation653 ft
Report Wrong Elevation
Raw Report
PARY 202256Z AUTO 07009KT 10SM BKN100 13/03 A2954=

Extra information for PARY:More info

Metar Taf Metar & Taf Last 4 Metars F.Rules Stats Wind Profile Meteogram Temp Stats Airport Information Weather charts Add Link Nearby VenuesMetar ALERT Operation Metar Decoded Social comments

AIRNAV info for PARY